sensor_id;sensor_type;location;lat;lon;timestamp;P1;durP1;ratioP1;P2;durP2;ratioP2
8714;SDS011;4394;51.208;8.904;2023-09-18T00:02:18;6.80;;;5.17;;
8714;SDS011;4394;51.208;8.904;2023-09-18T00:05:06;7.13;;;4.93;;
8714;SDS011;4394;51.208;8.904;2023-09-18T00:07:55;5.57;;;5.03;;
8714;SDS011;4394;51.208;8.904;2023-09-18T00:10:43;8.47;;;5.70;;
8714;SDS011;4394;51.208;8.904;2023-09-18T00:13:34;8.63;;;5.50;;
8714;SDS011;4394;51.208;8.904;2023-09-18T00:16:22;6.25;;;5.65;;
8714;SDS011;4394;51.208;8.904;2023-09-18T00:19:14;7.60;;;5.40;;
8714;SDS011;4394;51.208;8.904;2023-09-18T00:22:02;7.07;;;5.27;;
8714;SDS011;4394;51.208;8.904;2023-09-18T00:24:51;6.87;;;5.60;;
8714;SDS011;4394;51.208;8.904;2023-09-18T00:27:39;8.13;;;5.30;;
8714;SDS011;4394;51.208;8.904;2023-09-18T00:30:27;6.50;;;5.50;;
8714;SDS011;4394;51.208;8.904;2023-09-18T00:33:16;8.17;;;5.80;;
8714;SDS011;4394;51.208;8.904;2023-09-18T00:36:07;6.00;;;5.40;;
8714;SDS011;4394;51.208;8.904;2023-09-18T00:38:55;7.80;;;6.33;;
8714;SDS011;4394;51.208;8.904;2023-09-18T00:41:43;9.53;;;5.87;;
8714;SDS011;4394;51.208;8.904;2023-09-18T00:44:35;10.43;;;6.30;;
8714;SDS011;4394;51.208;8.904;2023-09-18T00:47:23;6.60;;;5.93;;
8714;SDS011;4394;51.208;8.904;2023-09-18T00:50:12;8.77;;;6.03;;
8714;SDS011;4394;51.208;8.904;2023-09-18T00:53:03;8.27;;;5.67;;
8714;SDS011;4394;51.208;8.904;2023-09-18T00:55:52;7.07;;;6.30;;
8714;SDS011;4394;51.208;8.904;2023-09-18T00:58:42;8.57;;;6.10;;
8714;SDS011;4394;51.208;8.904;2023-09-18T01:01:31;7.07;;;5.87;;
8714;SDS011;4394;51.208;8.904;2023-09-18T01:04:19;8.00;;;6.00;;
8714;SDS011;4394;51.208;8.904;2023-09-18T01:07:08;7.90;;;5.87;;
8714;SDS011;4394;51.208;8.904;2023-09-18T01:09:58;9.93;;;5.80;;
8714;SDS011;4394;51.208;8.904;2023-09-18T01:12:46;6.60;;;5.57;;
8714;SDS011;4394;51.208;8.904;2023-09-18T01:15:41;7.13;;;5.80;;
8714;SDS011;4394;51.208;8.904;2023-09-18T01:18:35;6.83;;;5.77;;
8714;SDS011;4394;51.208;8.904;2023-09-18T01:21:23;9.87;;;6.10;;
8714;SDS011;4394;51.208;8.904;2023-09-18T01:24:12;9.23;;;5.53;;
8714;SDS011;4394;51.208;8.904;2023-09-18T01:27:00;9.77;;;6.50;;
8714;SDS011;4394;51.208;8.904;2023-09-18T01:29:49;6.57;;;5.67;;
8714;SDS011;4394;51.208;8.904;2023-09-18T01:32:37;7.80;;;6.47;;
8714;SDS011;4394;51.208;8.904;2023-09-18T01:35:26;6.87;;;6.17;;
8714;SDS011;4394;51.208;8.904;2023-09-18T01:38:16;6.90;;;6.13;;
8714;SDS011;4394;51.208;8.904;2023-09-18T01:41:06;9.70;;;6.00;;
8714;SDS011;4394;51.208;8.904;2023-09-18T01:43:55;8.40;;;6.10;;
8714;SDS011;4394;51.208;8.904;2023-09-18T01:46:43;8.43;;;5.90;;
8714;SDS011;4394;51.208;8.904;2023-09-18T01:49:32;7.80;;;6.50;;
8714;SDS011;4394;51.208;8.904;2023-09-18T01:52:23;8.60;;;6.10;;
8714;SDS011;4394;51.208;8.904;2023-09-18T01:55:11;7.40;;;6.00;;
8714;SDS011;4394;51.208;8.904;2023-09-18T01:58:00;6.17;;;5.47;;
8714;SDS011;4394;51.208;8.904;2023-09-18T02:00:49;8.03;;;6.03;;
8714;SDS011;4394;51.208;8.904;2023-09-18T02:03:37;7.73;;;5.50;;
8714;SDS011;4394;51.208;8.904;2023-09-18T02:06:49;6.90;;;5.73;;
8714;SDS011;4394;51.208;8.904;2023-09-18T02:09:38;8.40;;;5.83;;
8714;SDS011;4394;51.208;8.904;2023-09-18T02:12:26;10.33;;;5.67;;
8714;SDS011;4394;51.208;8.904;2023-09-18T02:15:15;10.33;;;5.97;;
8714;SDS011;4394;51.208;8.904;2023-09-18T02:18:03;7.37;;;5.30;;
8714;SDS011;4394;51.208;8.904;2023-09-18T02:20:51;7.00;;;5.43;;
8714;SDS011;4394;51.208;8.904;2023-09-18T02:23:39;7.83;;;5.80;;
8714;SDS011;4394;51.208;8.904;2023-09-18T02:26:27;6.93;;;5.63;;
8714;SDS011;4394;51.208;8.904;2023-09-18T02:29:15;7.20;;;5.73;;
8714;SDS011;4394;51.208;8.904;2023-09-18T02:32:05;8.10;;;5.33;;
8714;SDS011;4394;51.208;8.904;2023-09-18T02:34:53;6.70;;;5.97;;
8714;SDS011;4394;51.208;8.904;2023-09-18T02:37:41;7.73;;;6.03;;
8714;SDS011;4394;51.208;8.904;2023-09-18T02:40:29;7.70;;;6.32;;
8714;SDS011;4394;51.208;8.904;2023-09-18T02:43:17;8.30;;;6.27;;
8714;SDS011;4394;51.208;8.904;2023-09-18T02:46:05;6.20;;;5.60;;
8714;SDS011;4394;51.208;8.904;2023-09-18T02:48:54;7.77;;;5.60;;
8714;SDS011;4394;51.208;8.904;2023-09-18T02:51:42;7.18;;;6.40;;
8714;SDS011;4394;51.208;8.904;2023-09-18T02:54:30;13.27;;;6.40;;
8714;SDS011;4394;51.208;8.904;2023-09-18T02:57:18;6.70;;;5.77;;
8714;SDS011;4394;51.208;8.904;2023-09-18T03:00:07;8.67;;;6.00;;
8714;SDS011;4394;51.208;8.904;2023-09-18T03:02:56;7.30;;;5.73;;
8714;SDS011;4394;51.208;8.904;2023-09-18T03:05:45;6.13;;;5.53;;
8714;SDS011;4394;51.208;8.904;2023-09-18T03:08:33;6.73;;;5.90;;
8714;SDS011;4394;51.208;8.904;2023-09-18T03:11:21;8.33;;;5.67;;
8714;SDS011;4394;51.208;8.904;2023-09-18T03:14:13;7.43;;;6.33;;
8714;SDS011;4394;51.208;8.904;2023-09-18T03:17:01;8.27;;;6.87;;
8714;SDS011;4394;51.208;8.904;2023-09-18T03:19:49;6.53;;;5.83;;
8714;SDS011;4394;51.208;8.904;2023-09-18T03:22:39;8.63;;;6.40;;
8714;SDS011;4394;51.208;8.904;2023-09-18T03:25:27;8.40;;;6.27;;
8714;SDS011;4394;51.208;8.904;2023-09-18T03:28:34;7.93;;;5.90;;
8714;SDS011;4394;51.208;8.904;2023-09-18T03:31:22;7.13;;;6.30;;
8714;SDS011;4394;51.208;8.904;2023-09-18T03:34:10;7.83;;;6.20;;
8714;SDS011;4394;51.208;8.904;2023-09-18T03:36:58;10.10;;;6.37;;
8714;SDS011;4394;51.208;8.904;2023-09-18T03:39:47;6.73;;;6.13;;
8714;SDS011;4394;51.208;8.904;2023-09-18T03:42:35;7.10;;;6.40;;
8714;SDS011;4394;51.208;8.904;2023-09-18T03:45:24;6.57;;;5.93;;
8714;SDS011;4394;51.208;8.904;2023-09-18T03:48:12;8.80;;;5.60;;
8714;SDS011;4394;51.208;8.904;2023-09-18T03:51:00;5.67;;;5.17;;
8714;SDS011;4394;51.208;8.904;2023-09-18T03:53:48;6.37;;;5.70;;
8714;SDS011;4394;51.208;8.904;2023-09-18T03:56:38;5.70;;;5.10;;
8714;SDS011;4394;51.208;8.904;2023-09-18T03:59:27;6.53;;;5.47;;
8714;SDS011;4394;51.208;8.904;2023-09-18T04:02:15;7.90;;;5.47;;
8714;SDS011;4394;51.208;8.904;2023-09-18T04:05:03;6.13;;;5.27;;
8714;SDS011;4394;51.208;8.904;2023-09-18T04:07:51;6.63;;;5.10;;
8714;SDS011;4394;51.208;8.904;2023-09-18T04:10:39;7.03;;;5.30;;
8714;SDS011;4394;51.208;8.904;2023-09-18T04:13:28;6.57;;;5.03;;
8714;SDS011;4394;51.208;8.904;2023-09-18T04:16:16;6.63;;;5.90;;
8714;SDS011;4394;51.208;8.904;2023-09-18T04:19:04;7.00;;;5.40;;
8714;SDS011;4394;51.208;8.904;2023-09-18T04:21:52;5.70;;;5.03;;
8714;SDS011;4394;51.208;8.904;2023-09-18T04:24:40;6.37;;;5.67;;
8714;SDS011;4394;51.208;8.904;2023-09-18T04:27:28;5.40;;;4.73;;
8714;SDS011;4394;51.208;8.904;2023-09-18T04:30:18;6.63;;;5.20;;
8714;SDS011;4394;51.208;8.904;2023-09-18T04:33:06;6.67;;;5.13;;
8714;SDS011;4394;51.208;8.904;2023-09-18T04:35:54;6.50;;;5.27;;
8714;SDS011;4394;51.208;8.904;2023-09-18T04:38:42;6.60;;;5.35;;
8714;SDS011;4394;51.208;8.904;2023-09-18T04:41:30;6.47;;;5.10;;
8714;SDS011;4394;51.208;8.904;2023-09-18T04:44:19;7.30;;;5.30;;
8714;SDS011;4394;51.208;8.904;2023-09-18T04:47:08;5.10;;;4.50;;
8714;SDS011;4394;51.208;8.904;2023-09-18T04:49:56;5.47;;;4.90;;
8714;SDS011;4394;51.208;8.904;2023-09-18T04:52:44;5.63;;;5.13;;
8714;SDS011;4394;51.208;8.904;2023-09-18T04:55:32;5.23;;;4.73;;
8714;SDS011;4394;51.208;8.904;2023-09-18T04:58:20;5.77;;;4.50;;
8714;SDS011;4394;51.208;8.904;2023-09-18T05:01:09;5.97;;;5.37;;
8714;SDS011;4394;51.208;8.904;2023-09-18T05:03:59;5.07;;;4.57;;
8714;SDS011;4394;51.208;8.904;2023-09-18T05:06:47;6.03;;;4.90;;
8714;SDS011;4394;51.208;8.904;2023-09-18T05:09:35;5.57;;;4.93;;
8714;SDS011;4394;51.208;8.904;2023-09-18T05:12:24;5.73;;;5.13;;
8714;SDS011;4394;51.208;8.904;2023-09-18T05:15:12;6.67;;;4.90;;
8714;SDS011;4394;51.208;8.904;2023-09-18T05:18:02;5.90;;;4.97;;
8714;SDS011;4394;51.208;8.904;2023-09-18T05:20:52;6.03;;;4.63;;
8714;SDS011;4394;51.208;8.904;2023-09-18T05:23:40;7.60;;;5.10;;
8714;SDS011;4394;51.208;8.904;2023-09-18T05:26:28;7.67;;;4.97;;
8714;SDS011;4394;51.208;8.904;2023-09-18T05:29:16;7.63;;;4.97;;
8714;SDS011;4394;51.208;8.904;2023-09-18T05:32:05;7.77;;;5.27;;
8714;SDS011;4394;51.208;8.904;2023-09-18T05:34:53;6.95;;;5.00;;
8714;SDS011;4394;51.208;8.904;2023-09-18T05:37:42;6.90;;;4.30;;
8714;SDS011;4394;51.208;8.904;2023-09-18T05:40:31;7.60;;;5.27;;
8714;SDS011;4394;51.208;8.904;2023-09-18T05:43:19;5.47;;;4.60;;
8714;SDS011;4394;51.208;8.904;2023-09-18T05:46:07;5.83;;;4.70;;
8714;SDS011;4394;51.208;8.904;2023-09-18T05:48:55;6.37;;;4.70;;
8714;SDS011;4394;51.208;8.904;2023-09-18T05:51:44;5.37;;;4.57;;
8714;SDS011;4394;51.208;8.904;2023-09-18T05:54:34;7.07;;;4.23;;
8714;SDS011;4394;51.208;8.904;2023-09-18T05:57:23;8.17;;;5.10;;
8714;SDS011;4394;51.208;8.904;2023-09-18T06:00:11;8.43;;;4.80;;
8714;SDS011;4394;51.208;8.904;2023-09-18T06:03:00;7.90;;;4.30;;
8714;SDS011;4394;51.208;8.904;2023-09-18T06:05:48;8.93;;;4.30;;
8714;SDS011;4394;51.208;8.904;2023-09-18T06:08:37;8.70;;;4.40;;
8714;SDS011;4394;51.208;8.904;2023-09-18T06:11:26;4.73;;;3.80;;
8714;SDS011;4394;51.208;8.904;2023-09-18T06:14:14;8.33;;;4.50;;
8714;SDS011;4394;51.208;8.904;2023-09-18T06:17:02;7.03;;;4.37;;
8714;SDS011;4394;51.208;8.904;2023-09-18T06:19:52;8.40;;;4.30;;
8714;SDS011;4394;51.208;8.904;2023-09-18T06:22:40;6.80;;;4.20;;
8714;SDS011;4394;51.208;8.904;2023-09-18T06:25:28;6.03;;;4.23;;
8714;SDS011;4394;51.208;8.904;2023-09-18T06:28:18;6.90;;;4.47;;
8714;SDS011;4394;51.208;8.904;2023-09-18T06:31:06;6.17;;;4.50;;
8714;SDS011;4394;51.208;8.904;2023-09-18T06:33:55;8.77;;;4.70;;
8714;SDS011;4394;51.208;8.904;2023-09-18T06:36:43;5.30;;;4.80;;
8714;SDS011;4394;51.208;8.904;2023-09-18T06:39:31;10.47;;;5.20;;
8714;SDS011;4394;51.208;8.904;2023-09-18T06:42:19;7.00;;;4.37;;
8714;SDS011;4394;51.208;8.904;2023-09-18T06:45:08;6.10;;;4.50;;
8714;SDS011;4394;51.208;8.904;2023-09-18T06:47:57;7.13;;;4.53;;
8714;SDS011;4394;51.208;8.904;2023-09-18T06:50:46;9.80;;;4.20;;
8714;SDS011;4394;51.208;8.904;2023-09-18T06:53:35;8.80;;;4.43;;
8714;SDS011;4394;51.208;8.904;2023-09-18T06:56:23;7.30;;;4.70;;
8714;SDS011;4394;51.208;8.904;2023-09-18T06:59:11;5.63;;;4.70;;
8714;SDS011;4394;51.208;8.904;2023-09-18T07:02:01;6.60;;;4.33;;
8714;SDS011;4394;51.208;8.904;2023-09-18T07:04:49;5.00;;;4.23;;
8714;SDS011;4394;51.208;8.904;2023-09-18T07:07:37;5.73;;;4.17;;
8714;SDS011;4394;51.208;8.904;2023-09-18T07:10:25;7.77;;;5.00;;
8714;SDS011;4394;51.208;8.904;2023-09-18T07:13:13;5.83;;;4.63;;
8714;SDS011;4394;51.208;8.904;2023-09-18T07:16:01;7.57;;;4.40;;
8714;SDS011;4394;51.208;8.904;2023-09-18T07:18:51;7.57;;;4.23;;
8714;SDS011;4394;51.208;8.904;2023-09-18T07:21:40;6.33;;;4.73;;
8714;SDS011;4394;51.208;8.904;2023-09-18T07:24:28;6.97;;;4.33;;
8714;SDS011;4394;51.208;8.904;2023-09-18T07:27:16;7.43;;;4.27;;
8714;SDS011;4394;51.208;8.904;2023-09-18T07:30:05;7.90;;;4.33;;
8714;SDS011;4394;51.208;8.904;2023-09-18T07:32:54;7.23;;;4.20;;
8714;SDS011;4394;51.208;8.904;2023-09-18T07:35:46;6.13;;;4.37;;
8714;SDS011;4394;51.208;8.904;2023-09-18T07:38:35;10.73;;;4.23;;
8714;SDS011;4394;51.208;8.904;2023-09-18T07:41:23;6.23;;;3.87;;
8714;SDS011;4394;51.208;8.904;2023-09-18T07:44:12;7.53;;;4.23;;
8714;SDS011;4394;51.208;8.904;2023-09-18T07:47:00;6.93;;;4.30;;
8714;SDS011;4394;51.208;8.904;2023-09-18T07:49:48;5.83;;;4.53;;
8714;SDS011;4394;51.208;8.904;2023-09-18T07:52:38;5.77;;;4.43;;
8714;SDS011;4394;51.208;8.904;2023-09-18T07:55:26;6.53;;;4.23;;
8714;SDS011;4394;51.208;8.904;2023-09-18T07:58:14;10.30;;;4.70;;
8714;SDS011;4394;51.208;8.904;2023-09-18T08:01:02;9.30;;;4.70;;
8714;SDS011;4394;51.208;8.904;2023-09-18T08:03:52;5.43;;;4.47;;
8714;SDS011;4394;51.208;8.904;2023-09-18T08:06:40;9.50;;;4.73;;
8714;SDS011;4394;51.208;8.904;2023-09-18T08:09:29;9.13;;;4.70;;
8714;SDS011;4394;51.208;8.904;2023-09-18T08:12:17;7.03;;;4.47;;
8714;SDS011;4394;51.208;8.904;2023-09-18T08:15:06;6.43;;;4.27;;
8714;SDS011;4394;51.208;8.904;2023-09-18T08:17:55;6.63;;;4.50;;
8714;SDS011;4394;51.208;8.904;2023-09-18T08:20:43;6.13;;;4.50;;
8714;SDS011;4394;51.208;8.904;2023-09-18T08:23:31;5.63;;;4.60;;
8714;SDS011;4394;51.208;8.904;2023-09-18T08:26:21;6.53;;;4.80;;
8714;SDS011;4394;51.208;8.904;2023-09-18T08:29:09;7.97;;;4.90;;
8714;SDS011;4394;51.208;8.904;2023-09-18T08:31:57;8.60;;;4.30;;
8714;SDS011;4394;51.208;8.904;2023-09-18T08:34:45;7.77;;;4.20;;
8714;SDS011;4394;51.208;8.904;2023-09-18T08:37:33;5.87;;;4.20;;
8714;SDS011;4394;51.208;8.904;2023-09-18T08:40:22;9.07;;;4.27;;
8714;SDS011;4394;51.208;8.904;2023-09-18T08:43:14;9.27;;;3.97;;
8714;SDS011;4394;51.208;8.904;2023-09-18T08:46:03;10.47;;;4.13;;
8714;SDS011;4394;51.208;8.904;2023-09-18T08:48:51;8.20;;;4.77;;
8714;SDS011;4394;51.208;8.904;2023-09-18T08:51:41;8.90;;;3.87;;
8714;SDS011;4394;51.208;8.904;2023-09-18T08:54:30;7.90;;;3.97;;
8714;SDS011;4394;51.208;8.904;2023-09-18T08:57:19;7.93;;;4.30;;
8714;SDS011;4394;51.208;8.904;2023-09-18T09:00:10;7.30;;;4.17;;
8714;SDS011;4394;51.208;8.904;2023-09-18T09:03:03;5.87;;;3.77;;
8714;SDS011;4394;51.208;8.904;2023-09-18T09:05:52;7.63;;;4.57;;
8714;SDS011;4394;51.208;8.904;2023-09-18T09:08:40;6.47;;;3.80;;
8714;SDS011;4394;51.208;8.904;2023-09-18T09:11:28;9.33;;;3.53;;
8714;SDS011;4394;51.208;8.904;2023-09-18T09:14:17;7.43;;;3.90;;
8714;SDS011;4394;51.208;8.904;2023-09-18T09:17:10;7.97;;;3.83;;
8714;SDS011;4394;51.208;8.904;2023-09-18T09:20:09;8.97;;;4.07;;
8714;SDS011;4394;51.208;8.904;2023-09-18T09:23:01;8.93;;;4.00;;
8714;SDS011;4394;51.208;8.904;2023-09-18T09:25:50;7.57;;;3.43;;
8714;SDS011;4394;51.208;8.904;2023-09-18T09:28:38;5.33;;;3.33;;
8714;SDS011;4394;51.208;8.904;2023-09-18T09:31:27;7.20;;;3.40;;
8714;SDS011;4394;51.208;8.904;2023-09-18T09:34:25;5.63;;;3.70;;
8714;SDS011;4394;51.208;8.904;2023-09-18T09:37:15;6.77;;;3.60;;
8714;SDS011;4394;51.208;8.904;2023-09-18T09:40:03;5.50;;;3.30;;
8714;SDS011;4394;51.208;8.904;2023-09-18T09:42:56;8.67;;;3.20;;
8714;SDS011;4394;51.208;8.904;2023-09-18T09:45:47;7.00;;;3.30;;
8714;SDS011;4394;51.208;8.904;2023-09-18T09:48:36;5.97;;;3.30;;
8714;SDS011;4394;51.208;8.904;2023-09-18T09:51:28;9.00;;;3.23;;
8714;SDS011;4394;51.208;8.904;2023-09-18T09:54:16;6.20;;;3.00;;
8714;SDS011;4394;51.208;8.904;2023-09-18T09:57:20;6.70;;;3.30;;
8714;SDS011;4394;51.208;8.904;2023-09-18T10:00:09;8.10;;;2.77;;
8714;SDS011;4394;51.208;8.904;2023-09-18T10:03:12;6.20;;;2.80;;
8714;SDS011;4394;51.208;8.904;2023-09-18T10:06:01;4.90;;;3.10;;
8714;SDS011;4394;51.208;8.904;2023-09-18T10:08:53;5.33;;;2.73;;
8714;SDS011;4394;51.208;8.904;2023-09-18T10:11:43;5.37;;;3.20;;
8714;SDS011;4394;51.208;8.904;2023-09-18T10:14:35;6.60;;;2.90;;
8714;SDS011;4394;51.208;8.904;2023-09-18T10:17:44;9.03;;;3.10;;
8714;SDS011;4394;51.208;8.904;2023-09-18T10:20:37;5.93;;;3.30;;
8714;SDS011;4394;51.208;8.904;2023-09-18T10:23:33;7.57;;;3.20;;
8714;SDS011;4394;51.208;8.904;2023-09-18T10:26:28;5.20;;;2.90;;
8714;SDS011;4394;51.208;8.904;2023-09-18T10:29:19;8.10;;;2.87;;
8714;SDS011;4394;51.208;8.904;2023-09-18T10:32:10;6.03;;;3.23;;
8714;SDS011;4394;51.208;8.904;2023-09-18T10:34:58;3.60;;;2.77;;
8714;SDS011;4394;51.208;8.904;2023-09-18T10:37:48;5.50;;;2.80;;
8714;SDS011;4394;51.208;8.904;2023-09-18T10:40:37;6.60;;;2.50;;
8714;SDS011;4394;51.208;8.904;2023-09-18T10:43:29;5.03;;;2.70;;
8714;SDS011;4394;51.208;8.904;2023-09-18T10:46:16;4.57;;;2.20;;
8714;SDS011;4394;51.208;8.904;2023-09-18T10:49:05;4.23;;;2.30;;
8714;SDS011;4394;51.208;8.904;2023-09-18T10:51:54;6.23;;;2.87;;
8714;SDS011;4394;51.208;8.904;2023-09-18T10:54:44;6.60;;;3.13;;
8714;SDS011;4394;51.208;8.904;2023-09-18T10:57:33;5.40;;;2.83;;
8714;SDS011;4394;51.208;8.904;2023-09-18T11:00:24;6.05;;;2.67;;
8714;SDS011;4394;51.208;8.904;2023-09-18T11:03:14;4.23;;;2.27;;
8714;SDS011;4394;51.208;8.904;2023-09-18T11:06:06;4.23;;;2.40;;
8714;SDS011;4394;51.208;8.904;2023-09-18T11:08:59;4.03;;;2.30;;
8714;SDS011;4394;51.208;8.904;2023-09-18T11:11:51;3.73;;;1.90;;
8714;SDS011;4394;51.208;8.904;2023-09-18T11:14:44;2.60;;;1.80;;
8714;SDS011;4394;51.208;8.904;2023-09-18T11:17:36;3.73;;;1.70;;
8714;SDS011;4394;51.208;8.904;2023-09-18T11:20:25;3.77;;;1.80;;
8714;SDS011;4394;51.208;8.904;2023-09-18T11:23:16;6.13;;;2.20;;
8714;SDS011;4394;51.208;8.904;2023-09-18T11:26:06;4.87;;;2.07;;
8714;SDS011;4394;51.208;8.904;2023-09-18T11:28:55;3.90;;;1.97;;
8714;SDS011;4394;51.208;8.904;2023-09-18T11:31:44;5.70;;;1.73;;
8714;SDS011;4394;51.208;8.904;2023-09-18T11:34:35;2.23;;;1.60;;
8714;SDS011;4394;51.208;8.904;2023-09-18T11:37:25;4.80;;;2.17;;
8714;SDS011;4394;51.208;8.904;2023-09-18T11:43:25;4.13;;;1.90;;
8714;SDS011;4394;51.208;8.904;2023-09-18T11:46:20;2.70;;;1.90;;
8714;SDS011;4394;51.208;8.904;2023-09-18T11:49:09;5.03;;;2.10;;
8714;SDS011;4394;51.208;8.904;2023-09-18T11:52:00;4.13;;;1.63;;
8714;SDS011;4394;51.208;8.904;2023-09-18T11:54:49;4.07;;;2.20;;
8714;SDS011;4394;51.208;8.904;2023-09-18T11:57:38;5.30;;;2.13;;
8714;SDS011;4394;51.208;8.904;2023-09-18T12:00:29;3.30;;;1.80;;
8714;SDS011;4394;51.208;8.904;2023-09-18T12:03:17;3.20;;;2.03;;
8714;SDS011;4394;51.208;8.904;2023-09-18T12:06:11;3.30;;;1.90;;
8714;SDS011;4394;51.208;8.904;2023-09-18T12:09:02;3.27;;;1.80;;
8714;SDS011;4394;51.208;8.904;2023-09-18T12:11:51;3.20;;;1.67;;
8714;SDS011;4394;51.208;8.904;2023-09-18T12:14:40;2.67;;;1.97;;
8714;SDS011;4394;51.208;8.904;2023-09-18T12:17:30;4.43;;;1.77;;
8714;SDS011;4394;51.208;8.904;2023-09-18T12:20:18;2.97;;;1.63;;
8714;SDS011;4394;51.208;8.904;2023-09-18T12:23:07;3.33;;;1.73;;
8714;SDS011;4394;51.208;8.904;2023-09-18T12:25:59;5.67;;;1.77;;
8714;SDS011;4394;51.208;8.904;2023-09-18T12:28:50;4.23;;;1.67;;
8714;SDS011;4394;51.208;8.904;2023-09-18T12:31:38;2.83;;;1.77;;
8714;SDS011;4394;51.208;8.904;2023-09-18T12:34:26;2.40;;;1.57;;
8714;SDS011;4394;51.208;8.904;2023-09-18T12:37:15;3.43;;;1.80;;
8714;SDS011;4394;51.208;8.904;2023-09-18T12:40:03;4.37;;;1.70;;
8714;SDS011;4394;51.208;8.904;2023-09-18T12:42:58;2.42;;;1.90;;
8714;SDS011;4394;51.208;8.904;2023-09-18T12:45:47;2.27;;;1.70;;
8714;SDS011;4394;51.208;8.904;2023-09-18T12:48:36;3.87;;;1.80;;
8714;SDS011;4394;51.208;8.904;2023-09-18T12:51:31;1.93;;;1.50;;
8714;SDS011;4394;51.208;8.904;2023-09-18T12:54:20;2.50;;;1.83;;
8714;SDS011;4394;51.208;8.904;2023-09-18T12:57:09;2.23;;;1.30;;
8714;SDS011;4394;51.208;8.904;2023-09-18T12:59:59;2.67;;;1.67;;
8714;SDS011;4394;51.208;8.904;2023-09-18T13:02:56;2.97;;;1.53;;
8714;SDS011;4394;51.208;8.904;2023-09-18T13:05:45;3.07;;;1.50;;
8714;SDS011;4394;51.208;8.904;2023-09-18T13:08:34;3.87;;;1.77;;
8714;SDS011;4394;51.208;8.904;2023-09-18T13:11:23;4.97;;;1.83;;
8714;SDS011;4394;51.208;8.904;2023-09-18T13:14:12;2.47;;;1.80;;
8714;SDS011;4394;51.208;8.904;2023-09-18T13:17:01;2.60;;;1.80;;
8714;SDS011;4394;51.208;8.904;2023-09-18T13:19:50;4.37;;;1.57;;
8714;SDS011;4394;51.208;8.904;2023-09-18T13:22:39;4.20;;;1.67;;
8714;SDS011;4394;51.208;8.904;2023-09-18T13:25:28;3.13;;;1.70;;
8714;SDS011;4394;51.208;8.904;2023-09-18T13:28:18;4.10;;;1.53;;
8714;SDS011;4394;51.208;8.904;2023-09-18T13:31:08;2.03;;;1.57;;
8714;SDS011;4394;51.208;8.904;2023-09-18T13:33:57;4.70;;;1.90;;
8714;SDS011;4394;51.208;8.904;2023-09-18T13:36:46;2.63;;;1.70;;
8714;SDS011;4394;51.208;8.904;2023-09-18T13:39:34;2.53;;;1.60;;
8714;SDS011;4394;51.208;8.904;2023-09-18T13:42:22;4.57;;;1.87;;
8714;SDS011;4394;51.208;8.904;2023-09-18T13:45:10;2.03;;;1.77;;
8714;SDS011;4394;51.208;8.904;2023-09-18T13:48:02;3.33;;;1.90;;
8714;SDS011;4394;51.208;8.904;2023-09-18T13:50:52;4.90;;;2.00;;
8714;SDS011;4394;51.208;8.904;2023-09-18T13:53:40;3.17;;;1.60;;
8714;SDS011;4394;51.208;8.904;2023-09-18T13:56:29;4.33;;;2.00;;
8714;SDS011;4394;51.208;8.904;2023-09-18T13:59:17;2.27;;;1.67;;
8714;SDS011;4394;51.208;8.904;2023-09-18T14:02:05;3.93;;;2.00;;
8714;SDS011;4394;51.208;8.904;2023-09-18T14:04:55;2.67;;;1.70;;
8714;SDS011;4394;51.208;8.904;2023-09-18T14:07:44;2.93;;;2.00;;
8714;SDS011;4394;51.208;8.904;2023-09-18T14:10:33;3.20;;;2.10;;
8714;SDS011;4394;51.208;8.904;2023-09-18T14:13:21;1.93;;;1.80;;
8714;SDS011;4394;51.208;8.904;2023-09-18T14:16:09;5.47;;;2.17;;
8714;SDS011;4394;51.208;8.904;2023-09-18T14:19:00;2.10;;;1.60;;
8714;SDS011;4394;51.208;8.904;2023-09-18T14:21:48;4.00;;;1.90;;
8714;SDS011;4394;51.208;8.904;2023-09-18T14:24:37;4.23;;;1.90;;
8714;SDS011;4394;51.208;8.904;2023-09-18T14:27:25;4.37;;;1.60;;
8714;SDS011;4394;51.208;8.904;2023-09-18T14:30:13;3.27;;;1.90;;
8714;SDS011;4394;51.208;8.904;2023-09-18T14:33:02;3.80;;;2.07;;
8714;SDS011;4394;51.208;8.904;2023-09-18T14:35:50;2.23;;;1.60;;
8714;SDS011;4394;51.208;8.904;2023-09-18T14:38:38;2.47;;;2.03;;
8714;SDS011;4394;51.208;8.904;2023-09-18T14:41:27;4.87;;;2.00;;
8714;SDS011;4394;51.208;8.904;2023-09-18T14:44:16;2.00;;;1.87;;
8714;SDS011;4394;51.208;8.904;2023-09-18T14:47:04;1.87;;;1.73;;
8714;SDS011;4394;51.208;8.904;2023-09-18T14:49:53;2.87;;;1.90;;
8714;SDS011;4394;51.208;8.904;2023-09-18T14:52:41;2.10;;;1.90;;
8714;SDS011;4394;51.208;8.904;2023-09-18T14:55:29;4.30;;;2.30;;
8714;SDS011;4394;51.208;8.904;2023-09-18T14:58:18;4.83;;;2.10;;
8714;SDS011;4394;51.208;8.904;2023-09-18T15:01:08;3.15;;;2.50;;
8714;SDS011;4394;51.208;8.904;2023-09-18T15:04:01;2.30;;;2.10;;
8714;SDS011;4394;51.208;8.904;2023-09-18T15:06:49;2.43;;;1.93;;
8714;SDS011;4394;51.208;8.904;2023-09-18T15:09:37;2.20;;;1.90;;
8714;SDS011;4394;51.208;8.904;2023-09-18T15:12:25;3.33;;;2.08;;
8714;SDS011;4394;51.208;8.904;2023-09-18T15:15:15;2.17;;;1.97;;
8714;SDS011;4394;51.208;8.904;2023-09-18T15:18:04;4.43;;;2.07;;
8714;SDS011;4394;51.208;8.904;2023-09-18T15:20:52;2.37;;;2.03;;
8714;SDS011;4394;51.208;8.904;2023-09-18T15:23:41;2.63;;;2.00;;
8714;SDS011;4394;51.208;8.904;2023-09-18T15:26:29;3.13;;;2.13;;
8714;SDS011;4394;51.208;8.904;2023-09-18T15:29:17;4.10;;;2.07;;
8714;SDS011;4394;51.208;8.904;2023-09-18T15:32:07;2.93;;;1.93;;
8714;SDS011;4394;51.208;8.904;2023-09-18T15:34:55;2.30;;;2.10;;
8714;SDS011;4394;51.208;8.904;2023-09-18T15:37:43;2.97;;;2.10;;
8714;SDS011;4394;51.208;8.904;2023-09-18T15:40:31;3.80;;;2.13;;
8714;SDS011;4394;51.208;8.904;2023-09-18T15:43:19;4.53;;;3.00;;
8714;SDS011;4394;51.208;8.904;2023-09-18T15:46:07;3.33;;;3.03;;
8714;SDS011;4394;51.208;8.904;2023-09-18T15:48:57;4.07;;;2.50;;
8714;SDS011;4394;51.208;8.904;2023-09-18T15:51:45;2.55;;;2.10;;
8714;SDS011;4394;51.208;8.904;2023-09-18T15:54:33;3.60;;;2.20;;
8714;SDS011;4394;51.208;8.904;2023-09-18T15:57:21;4.83;;;2.50;;
8714;SDS011;4394;51.208;8.904;2023-09-18T16:00:10;2.80;;;2.07;;
8714;SDS011;4394;51.208;8.904;2023-09-18T16:02:59;5.47;;;2.40;;
8714;SDS011;4394;51.208;8.904;2023-09-18T16:05:48;2.93;;;2.30;;
8714;SDS011;4394;51.208;8.904;2023-09-18T16:08:38;11.63;;;2.43;;
8714;SDS011;4394;51.208;8.904;2023-09-18T16:11:26;2.33;;;2.03;;
8714;SDS011;4394;51.208;8.904;2023-09-18T16:14:14;5.90;;;2.20;;
8714;SDS011;4394;51.208;8.904;2023-09-18T16:17:08;2.97;;;2.67;;
8714;SDS011;4394;51.208;8.904;2023-09-18T16:19:56;2.97;;;2.37;;
8714;SDS011;4394;51.208;8.904;2023-09-18T16:22:48;3.23;;;2.27;;
8714;SDS011;4394;51.208;8.904;2023-09-18T16:25:36;3.30;;;2.70;;
8714;SDS011;4394;51.208;8.904;2023-09-18T16:28:24;2.70;;;2.50;;
8714;SDS011;4394;51.208;8.904;2023-09-18T16:31:12;4.40;;;2.90;;
8714;SDS011;4394;51.208;8.904;2023-09-18T16:34:01;4.00;;;2.83;;
8714;SDS011;4394;51.208;8.904;2023-09-18T16:36:50;4.00;;;3.00;;
8714;SDS011;4394;51.208;8.904;2023-09-18T16:39:40;4.30;;;3.30;;
8714;SDS011;4394;51.208;8.904;2023-09-18T16:42:28;5.57;;;3.10;;
8714;SDS011;4394;51.208;8.904;2023-09-18T16:45:16;3.70;;;3.17;;
8714;SDS011;4394;51.208;8.904;2023-09-18T16:48:06;4.80;;;3.17;;
8714;SDS011;4394;51.208;8.904;2023-09-18T16:50:54;4.60;;;3.23;;
8714;SDS011;4394;51.208;8.904;2023-09-18T16:53:42;4.33;;;3.30;;
8714;SDS011;4394;51.208;8.904;2023-09-18T16:56:32;3.67;;;3.10;;
8714;SDS011;4394;51.208;8.904;2023-09-18T16:59:21;4.40;;;3.33;;
8714;SDS011;4394;51.208;8.904;2023-09-18T17:02:13;3.60;;;2.70;;
8714;SDS011;4394;51.208;8.904;2023-09-18T17:05:01;3.63;;;3.00;;
8714;SDS011;4394;51.208;8.904;2023-09-18T17:07:51;3.33;;;3.03;;
8714;SDS011;4394;51.208;8.904;2023-09-18T17:10:39;3.83;;;2.50;;
8714;SDS011;4394;51.208;8.904;2023-09-18T17:13:30;5.27;;;2.50;;
8714;SDS011;4394;51.208;8.904;2023-09-18T17:16:18;2.97;;;2.67;;
8714;SDS011;4394;51.208;8.904;2023-09-18T17:19:06;3.97;;;2.70;;
8714;SDS011;4394;51.208;8.904;2023-09-18T17:21:59;3.13;;;2.77;;
8714;SDS011;4394;51.208;8.904;2023-09-18T17:24:50;3.50;;;2.87;;
8714;SDS011;4394;51.208;8.904;2023-09-18T17:27:38;3.20;;;2.60;;
8714;SDS011;4394;51.208;8.904;2023-09-18T17:30:27;3.93;;;2.60;;
8714;SDS011;4394;51.208;8.904;2023-09-18T17:33:17;4.87;;;2.70;;
8714;SDS011;4394;51.208;8.904;2023-09-18T17:36:06;3.10;;;2.63;;